sensor_id;sensor_type;location;lat;lon;timestamp;temperature;humidity
49148;DHT22;41980;45.550;12.070;2023-04-21T00:05:26;13.10;75.10
49148;DHT22;41980;45.550;12.070;2023-04-21T00:11:28;13.10;73.90
49148;DHT22;41980;45.550;12.070;2023-04-21T00:17:30;13.10;73.50
49148;DHT22;41980;45.550;12.070;2023-04-21T00:23:32;13.20;75.30
49148;DHT22;41980;45.550;12.070;2023-04-21T00:29:34;13.10;73.70
49148;DHT22;41980;45.550;12.070;2023-04-21T00:35:35;13.10;74.10
49148;DHT22;41980;45.550;12.070;2023-04-21T00:41:37;13.10;75.80
49148;DHT22;41980;45.550;12.070;2023-04-21T00:47:40;13.10;73.20
49148;DHT22;41980;45.550;12.070;2023-04-21T00:53:42;13.10;74.50
49148;DHT22;41980;45.550;12.070;2023-04-21T00:59:44;13.10;75.30
49148;DHT22;41980;45.550;12.070;2023-04-21T01:05:46;13.10;74.10
49148;DHT22;41980;45.550;12.070;2023-04-21T01:17:53;13.00;74.80
49148;DHT22;41980;45.550;12.070;2023-04-21T01:23:54;13.00;73.80
49148;DHT22;41980;45.550;12.070;2023-04-21T01:29:56;13.00;73.30
49148;DHT22;41980;45.550;12.070;2023-04-21T01:35:57;13.10;74.00
49148;DHT22;41980;45.550;12.070;2023-04-21T01:42:01;13.00;74.50
49148;DHT22;41980;45.550;12.070;2023-04-21T01:48:03;13.10;75.20
49148;DHT22;41980;45.550;12.070;2023-04-21T01:54:05;13.10;74.60
49148;DHT22;41980;45.550;12.070;2023-04-21T02:00:06;13.10;74.90
49148;DHT22;41980;45.550;12.070;2023-04-21T02:06:16;13.10;73.90
49148;DHT22;41980;45.550;12.070;2023-04-21T02:12:18;13.00;73.50
49148;DHT22;41980;45.550;12.070;2023-04-21T02:18:20;13.00;74.10
49148;DHT22;41980;45.550;12.070;2023-04-21T02:24:22;13.00;73.10
49148;DHT22;41980;45.550;12.070;2023-04-21T02:30:23;13.00;74.80
49148;DHT22;41980;45.550;12.070;2023-04-21T02:36:25;13.00;75.70
49148;DHT22;41980;45.550;12.070;2023-04-21T02:42:32;13.00;75.90
49148;DHT22;41980;45.550;12.070;2023-04-21T02:48:34;13.00;73.70
49148;DHT22;41980;45.550;12.070;2023-04-21T02:54:36;12.90;73.30
49148;DHT22;41980;45.550;12.070;2023-04-21T03:00:38;13.00;73.90
49148;DHT22;41980;45.550;12.070;2023-04-21T03:06:39;12.90;73.90
49148;DHT22;41980;45.550;12.070;2023-04-21T03:12:41;12.90;74.60
49148;DHT22;41980;45.550;12.070;2023-04-21T03:18:43;12.80;73.80
49148;DHT22;41980;45.550;12.070;2023-04-21T03:24:46;12.80;73.60
49148;DHT22;41980;45.550;12.070;2023-04-21T03:30:48;12.80;74.20
49148;DHT22;41980;45.550;12.070;2023-04-21T03:36:49;12.80;73.80
49148;DHT22;41980;45.550;12.070;2023-04-21T03:42:51;12.80;73.70
49148;DHT22;41980;45.550;12.070;2023-04-21T03:48:53;12.90;73.30
49148;DHT22;41980;45.550;12.070;2023-04-21T03:54:55;12.80;73.40
49148;DHT22;41980;45.550;12.070;2023-04-21T04:00:56;12.80;73.40
49148;DHT22;41980;45.550;12.070;2023-04-21T04:06:58;12.90;73.60
49148;DHT22;41980;45.550;12.070;2023-04-21T04:13:00;12.90;76.80
49148;DHT22;41980;45.550;12.070;2023-04-21T04:19:02;12.90;74.90
49148;DHT22;41980;45.550;12.070;2023-04-21T04:25:04;12.90;73.60
49148;DHT22;41980;45.550;12.070;2023-04-21T04:31:06;12.90;74.20
49148;DHT22;41980;45.550;12.070;2023-04-21T04:37:08;12.90;73.60
49148;DHT22;41980;45.550;12.070;2023-04-21T04:43:11;12.90;74.80
49148;DHT22;41980;45.550;12.070;2023-04-21T04:49:13;12.90;74.20
49148;DHT22;41980;45.550;12.070;2023-04-21T04:55:16;12.90;73.60
49148;DHT22;41980;45.550;12.070;2023-04-21T05:01:17;13.00;74.40
49148;DHT22;41980;45.550;12.070;2023-04-21T05:07:19;13.00;74.20
49148;DHT22;41980;45.550;12.070;2023-04-21T05:13:21;13.10;75.40
49148;DHT22;41980;45.550;12.070;2023-04-21T05:19:23;13.10;75.50
49148;DHT22;41980;45.550;12.070;2023-04-21T05:25:25;13.20;74.20
49148;DHT22;41980;45.550;12.070;2023-04-21T05:31:26;13.30;72.70
49148;DHT22;41980;45.550;12.070;2023-04-21T05:37:28;13.40;72.50
49148;DHT22;41980;45.550;12.070;2023-04-21T05:43:30;13.60;75.00
49148;DHT22;41980;45.550;12.070;2023-04-21T05:49:35;13.80;73.50
49148;DHT22;41980;45.550;12.070;2023-04-21T05:55:37;14.00;72.40
49148;DHT22;41980;45.550;12.070;2023-04-21T06:01:39;14.30;72.30
49148;DHT22;41980;45.550;12.070;2023-04-21T06:07:40;14.60;71.70
49148;DHT22;41980;45.550;12.070;2023-04-21T06:13:42;14.80;72.30
49148;DHT22;41980;45.550;12.070;2023-04-21T06:19:44;15.20;72.10
49148;DHT22;41980;45.550;12.070;2023-04-21T06:25:46;15.50;71.60
49148;DHT22;41980;45.550;12.070;2023-04-21T06:31:48;15.90;70.70
49148;DHT22;41980;45.550;12.070;2023-04-21T06:37:50;15.90;70.50
49148;DHT22;41980;45.550;12.070;2023-04-21T06:43:51;16.10;70.50
49148;DHT22;41980;45.550;12.070;2023-04-21T06:49:53;17.80;69.70
49148;DHT22;41980;45.550;12.070;2023-04-21T06:55:55;20.80;65.50
49148;DHT22;41980;45.550;12.070;2023-04-21T07:01:56;20.70;60.70
49148;DHT22;41980;45.550;12.070;2023-04-21T07:07:58;20.10;63.80
49148;DHT22;41980;45.550;12.070;2023-04-21T07:14:00;20.10;60.70
49148;DHT22;41980;45.550;12.070;2023-04-21T07:20:02;19.20;61.90
49148;DHT22;41980;45.550;12.070;2023-04-21T07:26:05;18.60;65.40
49148;DHT22;41980;45.550;12.070;2023-04-21T07:32:06;18.20;65.50
49148;DHT22;41980;45.550;12.070;2023-04-21T07:38:08;17.80;65.40
49148;DHT22;41980;45.550;12.070;2023-04-21T07:44:10;17.40;64.60
49148;DHT22;41980;45.550;12.070;2023-04-21T07:50:12;17.30;65.00
49148;DHT22;41980;45.550;12.070;2023-04-21T07:56:14;17.40;64.70
49148;DHT22;41980;45.550;12.070;2023-04-21T08:02:16;17.90;64.40
49148;DHT22;41980;45.550;12.070;2023-04-21T08:08:18;18.30;62.50
49148;DHT22;41980;45.550;12.070;2023-04-21T08:14:22;18.70;61.80
49148;DHT22;41980;45.550;12.070;2023-04-21T08:20:24;19.10;60.80
49148;DHT22;41980;45.550;12.070;2023-04-21T08:26:25;19.60;58.50
49148;DHT22;41980;45.550;12.070;2023-04-21T08:32:27;20.10;56.30
49148;DHT22;41980;45.550;12.070;2023-04-21T08:38:29;20.10;56.50
49148;DHT22;41980;45.550;12.070;2023-04-21T08:44:31;19.60;57.30
49148;DHT22;41980;45.550;12.070;2023-04-21T08:50:33;19.50;56.90
49148;DHT22;41980;45.550;12.070;2023-04-21T08:56:36;19.40;56.20
49148;DHT22;41980;45.550;12.070;2023-04-21T09:08:43;21.70;52.30
49148;DHT22;41980;45.550;12.070;2023-04-21T09:14:45;21.50;53.60
49148;DHT22;41980;45.550;12.070;2023-04-21T09:20:48;20.60;54.90
49148;DHT22;41980;45.550;12.070;2023-04-21T09:26:51;20.00;54.40
49148;DHT22;41980;45.550;12.070;2023-04-21T09:32:55;20.10;55.10
49148;DHT22;41980;45.550;12.070;2023-04-21T09:38:59;22.00;51.70
49148;DHT22;41980;45.550;12.070;2023-04-21T09:45:02;22.50;51.90
49148;DHT22;41980;45.550;12.070;2023-04-21T09:51:05;23.00;47.40
49148;DHT22;41980;45.550;12.070;2023-04-21T09:57:07;23.10;49.60
49148;DHT22;41980;45.550;12.070;2023-04-21T10:03:11;22.70;49.00
49148;DHT22;41980;45.550;12.070;2023-04-21T10:09:15;21.60;50.60
49148;DHT22;41980;45.550;12.070;2023-04-21T10:21:23;20.50;51.30
49148;DHT22;41980;45.550;12.070;2023-04-21T10:33:32;20.80;52.00
49148;DHT22;41980;45.550;12.070;2023-04-21T10:39:35;20.70;51.30
49148;DHT22;41980;45.550;12.070;2023-04-21T10:45:37;20.90;52.00
49148;DHT22;41980;45.550;12.070;2023-04-21T10:57:44;21.40;51.80
49148;DHT22;41980;45.550;12.070;2023-04-21T11:03:46;21.30;51.20
49148;DHT22;41980;45.550;12.070;2023-04-21T11:09:55;21.20;50.90
49148;DHT22;41980;45.550;12.070;2023-04-21T11:15:59;21.10;51.00
49148;DHT22;41980;45.550;12.070;2023-04-21T11:22:03;21.00;50.70
49148;DHT22;41980;45.550;12.070;2023-04-21T11:28:06;20.80;51.20
49148;DHT22;41980;45.550;12.070;2023-04-21T11:34:08;20.60;51.80
49148;DHT22;41980;45.550;12.070;2023-04-21T11:40:10;20.70;50.70
49148;DHT22;41980;45.550;12.070;2023-04-21T11:58:23;20.60;51.30
49148;DHT22;41980;45.550;12.070;2023-04-21T12:04:24;20.50;51.70
49148;DHT22;41980;45.550;12.070;2023-04-21T12:10:26;20.50;52.30
49148;DHT22;41980;45.550;12.070;2023-04-21T12:16:29;20.90;52.30
49148;DHT22;41980;45.550;12.070;2023-04-21T12:22:31;21.40;50.80
49148;DHT22;41980;45.550;12.070;2023-04-21T12:28:33;21.60;51.70
49148;DHT22;41980;45.550;12.070;2023-04-21T12:34:35;21.50;48.90
49148;DHT22;41980;45.550;12.070;2023-04-21T12:40:37;21.10;51.10
49148;DHT22;41980;45.550;12.070;2023-04-21T12:46:39;20.90;50.80
49148;DHT22;41980;45.550;12.070;2023-04-21T12:52:41;20.80;50.60
49148;DHT22;41980;45.550;12.070;2023-04-21T12:58:43;20.70;49.60
49148;DHT22;41980;45.550;12.070;2023-04-21T13:04:45;20.80;52.20
49148;DHT22;41980;45.550;12.070;2023-04-21T13:10:47;20.80;52.50
49148;DHT22;41980;45.550;12.070;2023-04-21T13:16:48;20.90;52.50
49148;DHT22;41980;45.550;12.070;2023-04-21T13:22:50;20.70;52.20
49148;DHT22;41980;45.550;12.070;2023-04-21T13:28:52;20.60;53.10
49148;DHT22;41980;45.550;12.070;2023-04-21T13:34:54;20.70;53.00
49148;DHT22;41980;45.550;12.070;2023-04-21T13:40:56;20.70;52.30
49148;DHT22;41980;45.550;12.070;2023-04-21T13:46:58;20.70;52.00
49148;DHT22;41980;45.550;12.070;2023-04-21T13:53:00;20.50;51.90
49148;DHT22;41980;45.550;12.070;2023-04-21T13:59:03;20.50;52.20
49148;DHT22;41980;45.550;12.070;2023-04-21T14:05:06;20.40;52.50
49148;DHT22;41980;45.550;12.070;2023-04-21T14:11:08;20.40;51.50
49148;DHT22;41980;45.550;12.070;2023-04-21T14:17:10;20.50;51.60
49148;DHT22;41980;45.550;12.070;2023-04-21T14:23:12;20.50;51.90
49148;DHT22;41980;45.550;12.070;2023-04-21T14:29:13;20.50;52.40
49148;DHT22;41980;45.550;12.070;2023-04-21T14:35:15;20.70;50.60
49148;DHT22;41980;45.550;12.070;2023-04-21T14:41:17;20.90;52.70
49148;DHT22;41980;45.550;12.070;2023-04-21T14:47:19;21.00;52.90
49148;DHT22;41980;45.550;12.070;2023-04-21T14:53:21;21.20;49.00
49148;DHT22;41980;45.550;12.070;2023-04-21T14:59:23;21.50;52.40
49148;DHT22;41980;45.550;12.070;2023-04-21T15:05:26;21.60;51.90
49148;DHT22;41980;45.550;12.070;2023-04-21T15:11:28;21.70;52.00
49148;DHT22;41980;45.550;12.070;2023-04-21T15:17:30;21.90;52.20
49148;DHT22;41980;45.550;12.070;2023-04-21T15:23:32;22.00;52.30
49148;DHT22;41980;45.550;12.070;2023-04-21T15:29:36;21.60;50.50
49148;DHT22;41980;45.550;12.070;2023-04-21T15:35:38;21.50;51.10
49148;DHT22;41980;45.550;12.070;2023-04-21T15:41:40;21.20;50.90
49148;DHT22;41980;45.550;12.070;2023-04-21T15:47:41;21.00;50.90
49148;DHT22;41980;45.550;12.070;2023-04-21T15:53:43;20.80;50.80
49148;DHT22;41980;45.550;12.070;2023-04-21T15:59:48;20.70;51.90
49148;DHT22;41980;45.550;12.070;2023-04-21T16:05:50;20.10;54.10
49148;DHT22;41980;45.550;12.070;2023-04-21T16:11:52;19.60;55.60
49148;DHT22;41980;45.550;12.070;2023-04-21T16:17:53;19.50;56.80
49148;DHT22;41980;45.550;12.070;2023-04-21T16:23:55;19.40;55.70
49148;DHT22;41980;45.550;12.070;2023-04-21T16:29:57;19.50;56.00
49148;DHT22;41980;45.550;12.070;2023-04-21T16:35:59;19.50;56.20
49148;DHT22;41980;45.550;12.070;2023-04-21T16:42:01;19.70;55.60
49148;DHT22;41980;45.550;12.070;2023-04-21T16:48:02;19.70;55.70
49148;DHT22;41980;45.550;12.070;2023-04-21T16:54:04;19.60;55.50
49148;DHT22;41980;45.550;12.070;2023-04-21T17:00:06;19.70;55.70
49148;DHT22;41980;45.550;12.070;2023-04-21T17:06:08;19.50;55.90
49148;DHT22;41980;45.550;12.070;2023-04-21T17:12:11;19.20;56.30
49148;DHT22;41980;45.550;12.070;2023-04-21T17:18:13;19.00;56.20
49148;DHT22;41980;45.550;12.070;2023-04-21T17:24:14;18.80;56.30
49148;DHT22;41980;45.550;12.070;2023-04-21T17:30:16;18.60;56.40
49148;DHT22;41980;45.550;12.070;2023-04-21T17:36:19;18.40;56.70
49148;DHT22;41980;45.550;12.070;2023-04-21T17:42:21;18.10;57.00
49148;DHT22;41980;45.550;12.070;2023-04-21T17:48:22;17.80;57.20
49148;DHT22;41980;45.550;12.070;2023-04-21T17:54:24;17.50;57.40
49148;DHT22;41980;45.550;12.070;2023-04-21T18:00:26;17.40;57.90
49148;DHT22;41980;45.550;12.070;2023-04-21T18:06:29;17.20;57.90
49148;DHT22;41980;45.550;12.070;2023-04-21T18:12:32;17.10;58.20
49148;DHT22;41980;45.550;12.070;2023-04-21T18:18:34;17.00;58.40
49148;DHT22;41980;45.550;12.070;2023-04-21T18:24:36;16.90;58.10
49148;DHT22;41980;45.550;12.070;2023-04-21T18:30:38;16.80;58.00
49148;DHT22;41980;45.550;12.070;2023-04-21T18:36:39;16.80;58.10
49148;DHT22;41980;45.550;12.070;2023-04-21T18:42:44;16.70;58.80
49148;DHT22;41980;45.550;12.070;2023-04-21T18:48:47;16.50;58.30
49148;DHT22;41980;45.550;12.070;2023-04-21T18:54:48;16.50;58.30
49148;DHT22;41980;45.550;12.070;2023-04-21T19:00:50;16.40;58.50
49148;DHT22;41980;45.550;12.070;2023-04-21T19:06:52;16.20;58.70
49148;DHT22;41980;45.550;12.070;2023-04-21T19:12:54;16.10;59.70
49148;DHT22;41980;45.550;12.070;2023-04-21T19:18:55;16.00;59.10
49148;DHT22;41980;45.550;12.070;2023-04-21T19:24:57;15.90;59.50
49148;DHT22;41980;45.550;12.070;2023-04-21T19:30:59;15.80;59.20
49148;DHT22;41980;45.550;12.070;2023-04-21T19:37:00;15.70;59.50
49148;DHT22;41980;45.550;12.070;2023-04-21T19:43:02;15.60;59.70
49148;DHT22;41980;45.550;12.070;2023-04-21T19:49:05;15.50;59.90
49148;DHT22;41980;45.550;12.070;2023-04-21T19:55:07;15.40;60.20
49148;DHT22;41980;45.550;12.070;2023-04-21T20:01:09;15.30;60.30
49148;DHT22;41980;45.550;12.070;2023-04-21T20:07:11;15.20;60.60
49148;DHT22;41980;45.550;12.070;2023-04-21T20:13:12;15.10;60.90
49148;DHT22;41980;45.550;12.070;2023-04-21T20:19:14;15.10;62.00
49148;DHT22;41980;45.550;12.070;2023-04-21T20:25:17;15.00;61.50
49148;DHT22;41980;45.550;12.070;2023-04-21T20:31:19;15.00;61.40
49148;DHT22;41980;45.550;12.070;2023-04-21T20:37:23;15.00;62.50
49148;DHT22;41980;45.550;12.070;2023-04-21T20:43:26;15.00;64.10
49148;DHT22;41980;45.550;12.070;2023-04-21T20:49:28;15.00;62.10
49148;DHT22;41980;45.550;12.070;2023-04-21T20:55:30;15.20;62.30
49148;DHT22;41980;45.550;12.070;2023-04-21T21:01:31;15.30;64.30
49148;DHT22;41980;45.550;12.070;2023-04-21T21:07:37;15.30;64.70
49148;DHT22;41980;45.550;12.070;2023-04-21T21:13:38;15.20;62.30
49148;DHT22;41980;45.550;12.070;2023-04-21T21:19:41;15.20;62.10
49148;DHT22;41980;45.550;12.070;2023-04-21T21:25:42;15.00;62.30
49148;DHT22;41980;45.550;12.070;2023-04-21T21:31:44;15.00;62.90
49148;DHT22;41980;45.550;12.070;2023-04-21T21:37:46;15.00;62.70
49148;DHT22;41980;45.550;12.070;2023-04-21T21:43:47;15.00;63.00
49148;DHT22;41980;45.550;12.070;2023-04-21T21:49:49;14.80;62.50
49148;DHT22;41980;45.550;12.070;2023-04-21T21:55:56;14.80;62.80
49148;DHT22;41980;45.550;12.070;2023-04-21T22:01:58;14.70;63.30
49148;DHT22;41980;45.550;12.070;2023-04-21T22:08:00;14.60;62.90
49148;DHT22;41980;45.550;12.070;2023-04-21T22:14:02;14.50;63.20
49148;DHT22;41980;45.550;12.070;2023-04-21T22:20:04;14.40;63.40
49148;DHT22;41980;45.550;12.070;2023-04-21T22:26:08;14.30;63.70
49148;DHT22;41980;45.550;12.070;2023-04-21T22:32:11;14.20;64.00
49148;DHT22;41980;45.550;12.070;2023-04-21T22:38:13;14.20;64.10
49148;DHT22;41980;45.550;12.070;2023-04-21T22:44:14;14.10;64.60
49148;DHT22;41980;45.550;12.070;2023-04-21T22:50:16;14.00;65.10
49148;DHT22;41980;45.550;12.070;2023-04-21T22:56:18;13.90;65.60
49148;DHT22;41980;45.550;12.070;2023-04-21T23:02:20;13.80;65.80
49148;DHT22;41980;45.550;12.070;2023-04-21T23:08:21;13.70;66.00
49148;DHT22;41980;45.550;12.070;2023-04-21T23:14:23;13.70;66.30
49148;DHT22;41980;45.550;12.070;2023-04-21T23:20:25;13.70;65.60
49148;DHT22;41980;45.550;12.070;2023-04-21T23:26:27;13.80;69.50
49148;DHT22;41980;45.550;12.070;2023-04-21T23:32:28;13.70;65.90
49148;DHT22;41980;45.550;12.070;2023-04-21T23:38:30;13.60;66.00
49148;DHT22;41980;45.550;12.070;2023-04-21T23:44:32;13.50;68.10
49148;DHT22;41980;45.550;12.070;2023-04-21T23:50:33;13.40;66.80
49148;DHT22;41980;45.550;12.070;2023-04-21T23:56:35;13.40;69.00
